createdAt,value
2019-01-18T00:01:17.138Z,66.85
2019-01-18T00:03:44.184Z,66.82
2019-01-18T00:06:11.230Z,66.93
2019-01-18T00:08:38.283Z,66.98
2019-01-18T00:11:05.302Z,67.16
2019-01-18T00:13:32.374Z,67.24
2019-01-18T00:15:59.405Z,67.33
2019-01-18T00:18:26.572Z,67.44
2019-01-18T00:20:53.606Z,67.43
2019-01-18T00:23:20.520Z,67.16
2019-01-18T00:25:47.556Z,66.90
2019-01-18T00:28:14.600Z,66.48
2019-01-18T00:30:41.652Z,66.35
2019-01-18T00:33:08.669Z,66.18
2019-01-18T00:35:35.742Z,66.22
2019-01-18T00:38:02.792Z,65.93
2019-01-18T00:40:29.863Z,65.96
2019-01-18T00:42:56.902Z,65.88
2019-01-18T00:45:23.937Z,65.66
2019-01-18T00:47:50.982Z,65.73
2019-01-18T00:50:18.020Z,65.76
2019-01-18T00:52:45.191Z,65.89
2019-01-18T00:55:12.341Z,66.12
2019-01-18T00:57:39.396Z,66.16
2019-01-18T01:00:10.674Z,66.35
2019-01-18T01:02:37.703Z,66.40
2019-01-18T01:05:04.853Z,66.59
2019-01-18T01:07:31.887Z,66.75
2019-01-18T01:09:58.947Z,66.89
2019-01-18T01:12:26.000Z,67.00
2019-01-18T01:14:53.031Z,67.18
2019-01-18T01:17:20.067Z,67.23
2019-01-18T01:19:47.101Z,67.43
2019-01-18T01:22:14.141Z,67.67
2019-01-18T01:24:41.178Z,67.77
2019-01-18T01:27:08.333Z,67.85
2019-01-18T01:29:35.367Z,67.99
2019-01-18T01:32:02.468Z,68.10
2019-01-18T01:34:29.504Z,68.10
2019-01-18T01:36:56.529Z,68.16
2019-01-18T01:39:23.564Z,68.32
2019-01-18T01:41:50.595Z,68.50
2019-01-18T01:44:17.657Z,68.54
2019-01-18T01:46:44.706Z,68.73
2019-01-18T01:49:11.755Z,68.68
2019-01-18T01:51:38.794Z,68.83
2019-01-18T01:54:05.867Z,68.77
2019-01-18T01:56:32.901Z,68.74
2019-01-18T01:58:59.938Z,68.67
2019-01-18T02:01:26.991Z,68.78
2019-01-18T02:03:54.027Z,68.81
2019-01-18T02:06:21.101Z,68.63
2019-01-18T02:08:48.127Z,68.62
2019-01-18T02:11:15.198Z,68.45
2019-01-18T02:13:42.231Z,69.97
2019-01-18T02:16:09.306Z,70.84
2019-01-18T02:18:36.376Z,71.60
2019-01-18T02:21:03.363Z,72.03
2019-01-18T02:23:30.403Z,72.60
2019-01-18T02:25:57.445Z,72.92
2019-01-18T02:28:24.486Z,72.95
2019-01-18T02:30:51.520Z,72.22
2019-01-18T02:33:18.592Z,71.82
2019-01-18T02:35:45.629Z,72.24
2019-01-18T02:38:12.683Z,72.50
2019-01-18T02:40:39.726Z,72.91
2019-01-18T02:43:06.782Z,72.84
2019-01-18T02:45:33.799Z,72.84
2019-01-18T02:48:00.847Z,72.78
2019-01-18T02:50:27.900Z,72.69
2019-01-18T02:52:54.936Z,72.27
2019-01-18T02:55:28.731Z,72.01
2019-01-18T02:57:50.945Z,71.91
2019-01-18T03:00:19.927Z,71.94
2019-01-18T03:02:46.965Z,71.82
2019-01-18T03:05:14.832Z,71.72
2019-01-18T03:07:41.861Z,71.85
2019-01-18T03:10:14.535Z,71.65
2019-01-18T03:12:41.555Z,71.70
2019-01-18T03:15:08.687Z,71.72
2019-01-18T03:17:35.711Z,71.72
2019-01-18T03:20:03.509Z,71.60
2019-01-18T03:22:30.588Z,71.31
2019-01-18T03:24:57.653Z,70.54
2019-01-18T03:27:24.689Z,70.36
2019-01-18T03:29:51.729Z,69.79
2019-01-18T03:32:18.759Z,69.55
2019-01-18T03:34:45.808Z,69.68
2019-01-18T03:37:12.841Z,69.66
2019-01-18T03:39:39.884Z,69.69
2019-01-18T03:42:06.930Z,69.63
2019-01-18T03:44:33.967Z,69.38
2019-01-18T03:47:01.004Z,69.03
2019-01-18T03:49:28.058Z,69.22
2019-01-18T03:51:55.109Z,69.04
2019-01-18T03:54:22.169Z,69.10
2019-01-18T03:56:49.221Z,68.87
2019-01-18T03:59:16.262Z,68.70
2019-01-18T04:01:43.350Z,68.60
2019-01-18T04:04:10.400Z,68.07
2019-01-18T04:06:37.466Z,67.68
2019-01-18T04:09:06.186Z,67.71
2019-01-18T04:11:33.220Z,67.19
2019-01-18T04:14:00.251Z,67.12
2019-01-18T04:16:27.685Z,67.10
2019-01-18T04:18:54.728Z,67.04
2019-01-18T04:21:21.802Z,66.91
2019-01-18T04:23:48.845Z,66.39
2019-01-18T04:26:15.926Z,66.36
2019-01-18T04:28:43.088Z,66.56
2019-01-18T04:31:10.154Z,66.46
2019-01-18T04:33:37.198Z,66.46
2019-01-18T04:36:04.256Z,65.98
2019-01-18T04:38:31.300Z,65.72
2019-01-18T04:40:58.339Z,65.72
2019-01-18T04:43:25.374Z,65.74
2019-01-18T04:45:52.424Z,65.68
2019-01-18T04:48:19.499Z,65.84
2019-01-18T04:50:46.532Z,66.04
2019-01-18T04:53:13.596Z,65.91
2019-01-18T04:55:40.638Z,65.52
2019-01-18T04:58:07.668Z,65.53
2019-01-18T05:00:40.642Z,65.69
2019-01-18T05:03:03.673Z,65.82
2019-01-18T05:05:30.722Z,65.96
2019-01-18T05:07:57.750Z,66.15
2019-01-18T05:10:26.283Z,66.14
2019-01-18T05:12:53.350Z,66.30
2019-01-18T05:15:22.446Z,66.38
2019-01-18T05:17:49.508Z,66.35
2019-01-18T05:20:16.547Z,66.13
2019-01-18T05:22:43.595Z,66.28
2019-01-18T05:25:10.784Z,66.32
2019-01-18T05:27:38.153Z,66.18
2019-01-18T05:30:11.146Z,66.17
2019-01-18T05:32:38.183Z,66.14
2019-01-18T05:35:05.990Z,66.30
2019-01-18T05:37:33.043Z,66.35
2019-01-18T05:40:00.239Z,66.33
2019-01-18T05:42:27.327Z,66.29
2019-01-18T05:44:54.355Z,66.12
2019-01-18T05:47:21.386Z,66.19
2019-01-18T05:49:48.435Z,66.14
2019-01-18T05:52:15.488Z,66.07
2019-01-18T05:54:42.524Z,65.60
2019-01-18T05:57:09.587Z,65.67
2019-01-18T05:59:36.617Z,65.65
2019-01-18T06:02:03.757Z,65.49
2019-01-18T06:04:30.803Z,65.49
2019-01-18T06:06:57.833Z,65.76
2019-01-18T06:09:24.865Z,65.78
2019-01-18T06:11:51.920Z,65.52
2019-01-18T06:14:18.945Z,65.67
2019-01-18T06:16:46.005Z,65.55
2019-01-18T06:19:13.033Z,65.43
2019-01-18T06:21:40.071Z,65.48
2019-01-18T06:24:07.117Z,65.36
2019-01-18T06:26:34.167Z,65.34
2019-01-18T06:29:01.207Z,65.36
2019-01-18T06:31:28.259Z,64.85
2019-01-18T06:33:55.318Z,64.55
2019-01-18T06:36:22.377Z,64.84
2019-01-18T06:38:49.439Z,65.29
2019-01-18T06:41:38.993Z,65.25
2019-01-18T06:44:06.063Z,68.71
2019-01-18T06:46:33.104Z,66.73
2019-01-18T06:49:00.488Z,65.78
2019-01-18T06:51:27.526Z,69.08
2019-01-18T06:53:54.604Z,65.17
2019-01-18T06:56:21.649Z,65.87
2019-01-18T06:58:48.700Z,66.27
2019-01-18T07:01:15.731Z,64.50
2019-01-18T07:03:42.764Z,64.71
2019-01-18T07:06:09.824Z,63.41
2019-01-18T07:08:36.860Z,62.93
2019-01-18T07:11:03.899Z,62.64
2019-01-18T07:13:30.918Z,63.11
2019-01-18T07:15:57.976Z,64.41
2019-01-18T07:18:24.996Z,64.25
2019-01-18T07:20:52.042Z,64.52
2019-01-18T07:23:19.087Z,64.08
2019-01-18T07:25:46.160Z,63.81
2019-01-18T07:28:13.212Z,64.54
2019-01-18T07:30:41.476Z,64.21
2019-01-18T07:33:12.970Z,63.83
2019-01-18T07:35:40.017Z,63.66
2019-01-18T07:38:07.054Z,63.85
2019-01-18T07:40:34.374Z,63.96
2019-01-18T07:43:01.461Z,64.06
2019-01-18T07:45:28.687Z,63.90
2019-01-18T07:47:55.769Z,63.97
2019-01-18T07:50:22.887Z,63.97
2019-01-18T07:52:50.069Z,64.07
2019-01-18T07:55:17.103Z,64.15
2019-01-18T07:57:44.174Z,64.17
2019-01-18T08:00:14.265Z,64.18
2019-01-18T08:02:41.551Z,64.38
2019-01-18T08:05:08.713Z,64.48
2019-01-18T08:07:35.771Z,64.75
2019-01-18T08:10:04.644Z,64.75
2019-01-18T08:12:31.680Z,64.72
2019-01-18T08:14:58.766Z,64.77
2019-01-18T08:17:25.867Z,64.50
2019-01-18T08:19:52.939Z,63.49
2019-01-18T08:22:20.325Z,63.27
2019-01-18T08:24:50.517Z,63.21
2019-01-18T08:27:17.565Z,63.30
2019-01-18T08:29:44.600Z,62.91
2019-01-18T08:32:11.637Z,62.01
2019-01-18T08:34:38.682Z,62.39
2019-01-18T08:37:05.707Z,62.38
2019-01-18T08:39:32.737Z,61.96
2019-01-18T08:41:59.782Z,62.23
2019-01-18T08:44:26.858Z,61.99
2019-01-18T08:46:53.932Z,61.68
2019-01-18T08:49:21.003Z,61.50
2019-01-18T08:51:48.044Z,61.55
2019-01-18T08:54:15.092Z,61.32
2019-01-18T08:56:42.140Z,61.65
2019-01-18T08:59:09.180Z,61.91
2019-01-18T09:01:36.233Z,61.84
2019-01-18T09:04:03.492Z,61.85
2019-01-18T09:06:30.581Z,61.72
2019-01-18T09:08:57.615Z,62.17
2019-01-18T09:11:24.692Z,62.32
2019-01-18T09:13:51.712Z,62.24
2019-01-18T09:16:20.191Z,62.40
2019-01-18T09:18:47.288Z,62.69
2019-01-18T09:21:14.332Z,62.55
2019-01-18T09:23:41.355Z,62.63
2019-01-18T09:26:08.399Z,62.71
2019-01-18T09:28:35.462Z,62.45
2019-01-18T09:31:02.524Z,62.14
2019-01-18T09:33:30.369Z,61.55
2019-01-18T09:35:57.461Z,61.33
2019-01-18T09:38:24.493Z,61.24
2019-01-18T09:40:51.549Z,60.81
2019-01-18T09:43:18.586Z,60.56
2019-01-18T09:45:45.627Z,60.37
2019-01-18T09:48:12.752Z,60.27
2019-01-18T09:50:39.774Z,59.90
2019-01-18T09:53:08.613Z,59.30
2019-01-18T09:55:35.646Z,58.99
2019-01-18T09:58:02.795Z,58.56
2019-01-18T10:00:32.039Z,58.40
2019-01-18T10:02:59.645Z,58.41
2019-01-18T10:05:26.732Z,58.45
2019-01-18T10:07:53.789Z,58.49
2019-01-18T10:10:21.157Z,58.45
2019-01-18T10:12:48.479Z,58.57
2019-01-18T10:15:20.597Z,57.50
2019-01-18T10:17:47.637Z,58.44
2019-01-18T10:20:14.876Z,58.58
2019-01-18T10:22:42.367Z,58.63
2019-01-18T10:25:10.659Z,58.85
2019-01-18T10:27:37.707Z,59.20
2019-01-18T10:30:05.160Z,59.40
2019-01-18T10:32:32.279Z,59.29
2019-01-18T10:34:59.312Z,59.43
2019-01-18T10:37:26.429Z,59.68
2019-01-18T10:39:53.461Z,59.71
2019-01-18T10:42:20.508Z,59.82
2019-01-18T10:44:47.547Z,59.73
2019-01-18T10:47:14.637Z,59.60
2019-01-18T10:49:41.687Z,59.39
2019-01-18T10:52:08.731Z,59.31
2019-01-18T10:54:35.790Z,58.67
2019-01-18T10:57:02.825Z,58.96
2019-01-18T10:59:29.885Z,58.26
2019-01-18T11:02:00.799Z,58.29
2019-01-18T11:04:25.882Z,57.74
2019-01-18T11:06:52.922Z,57.51
2019-01-18T11:09:19.980Z,57.05
2019-01-18T11:11:47.005Z,56.67
2019-01-18T11:14:14.034Z,56.03
2019-01-18T11:16:41.086Z,55.91
2019-01-18T11:19:08.120Z,54.97
2019-01-18T11:21:35.282Z,55.23
2019-01-18T11:24:02.331Z,54.91
2019-01-18T11:26:29.412Z,55.22
2019-01-18T11:28:56.500Z,55.29
2019-01-18T11:31:23.570Z,54.09
2019-01-18T11:33:50.605Z,54.19
2019-01-18T11:36:17.672Z,54.56
2019-01-18T11:38:44.712Z,54.51
2019-01-18T11:41:11.748Z,54.13
2019-01-18T11:43:38.791Z,54.32
2019-01-18T11:46:05.800Z,54.56
2019-01-18T11:48:32.831Z,54.58
2019-01-18T11:50:59.856Z,54.42
2019-01-18T11:53:26.884Z,54.43
2019-01-18T11:55:53.906Z,54.18
2019-01-18T11:58:20.950Z,54.32
2019-01-18T12:00:47.990Z,54.44
2019-01-18T12:03:15.102Z,54.25
2019-01-18T12:05:42.136Z,54.43
2019-01-18T12:08:09.171Z,54.40
2019-01-18T12:10:36.247Z,54.64
2019-01-18T12:13:03.566Z,54.41
2019-01-18T12:15:30.606Z,54.53
2019-01-18T12:17:57.652Z,54.91
2019-01-18T12:20:27.427Z,54.63
2019-01-18T12:22:54.457Z,54.96
2019-01-18T12:25:21.471Z,55.24
2019-01-18T12:27:48.517Z,55.67
2019-01-18T12:30:17.979Z,55.66
2019-01-18T12:32:45.036Z,55.69
2019-01-18T12:35:12.069Z,56.21
2019-01-18T12:37:39.257Z,56.32
2019-01-18T12:40:07.045Z,56.29
2019-01-18T12:42:34.098Z,56.13
2019-01-18T12:45:01.408Z,56.25
2019-01-18T12:47:28.539Z,56.08
2019-01-18T12:49:55.614Z,55.76
2019-01-18T12:52:22.659Z,54.97
2019-01-18T12:54:49.726Z,55.33
2019-01-18T12:57:16.775Z,54.93
2019-01-18T12:59:43.839Z,55.19
2019-01-18T13:02:10.953Z,55.57
2019-01-18T13:04:38.024Z,55.52
2019-01-18T13:07:05.091Z,55.75
2019-01-18T13:09:32.133Z,55.25
2019-01-18T13:11:59.225Z,55.89
2019-01-18T13:14:26.315Z,56.04
2019-01-18T13:16:53.422Z,56.32
2019-01-18T13:19:22.387Z,56.41
2019-01-18T13:21:49.458Z,56.54
2019-01-18T13:24:16.519Z,56.65
2019-01-18T13:26:43.591Z,56.33
2019-01-18T13:29:10.692Z,56.42
2019-01-18T13:31:37.760Z,56.36
2019-01-18T13:34:04.829Z,56.76
2019-01-18T13:36:31.896Z,57.25
2019-01-18T13:38:58.973Z,57.56
2019-01-18T13:41:26.054Z,57.93
2019-01-18T13:43:53.141Z,57.95
2019-01-18T13:46:20.214Z,57.93
2019-01-18T13:48:47.286Z,57.83
2019-01-18T13:51:14.353Z,57.83
2019-01-18T13:53:41.421Z,57.74
2019-01-18T13:56:08.471Z,57.70
2019-01-18T13:58:35.536Z,57.11
2019-01-18T14:01:02.626Z,57.47
2019-01-18T14:03:29.691Z,57.16
2019-01-18T14:05:56.769Z,57.31
2019-01-18T14:08:23.855Z,57.24
2019-01-18T14:10:50.932Z,56.78
2019-01-18T14:13:18.000Z,56.86
2019-01-18T14:15:46.430Z,56.71
2019-01-18T14:18:13.483Z,56.65
2019-01-18T14:20:40.562Z,56.69
2019-01-18T14:23:07.631Z,56.90
2019-01-18T14:25:34.714Z,57.01
2019-01-18T14:28:01.831Z,56.65
2019-01-18T14:30:28.872Z,56.86
2019-01-18T14:32:56.190Z,56.76
2019-01-18T14:35:23.354Z,56.90
2019-01-18T14:37:50.505Z,56.77
2019-01-18T14:40:17.571Z,56.88
2019-01-18T14:42:44.800Z,56.60
2019-01-18T14:45:17.893Z,56.55
2019-01-18T14:47:44.939Z,57.04
2019-01-18T14:50:15.237Z,57.23
2019-01-18T14:52:42.355Z,57.59
2019-01-18T14:55:09.429Z,57.86
2019-01-18T14:57:36.515Z,58.07
2019-01-18T15:00:07.002Z,57.95
2019-01-18T15:02:34.107Z,58.09
2019-01-18T15:05:01.239Z,58.12
2019-01-18T15:07:28.354Z,58.25
2019-01-18T15:09:57.688Z,58.32
2019-01-18T15:12:24.764Z,58.37
2019-01-18T15:14:51.896Z,58.52
2019-01-18T15:17:19.019Z,58.82
2019-01-18T15:19:47.508Z,58.86
2019-01-18T15:22:14.877Z,58.94
2019-01-18T15:24:42.002Z,59.43
2019-01-18T15:27:09.117Z,59.69
2019-01-18T15:29:36.215Z,59.78
2019-01-18T15:32:03.384Z,59.72
2019-01-18T15:34:30.529Z,60.10
2019-01-18T15:36:57.681Z,60.45
2019-01-18T15:39:25.134Z,60.82
2019-01-18T15:41:52.245Z,61.07
2019-01-18T15:44:19.331Z,61.27
2019-01-18T15:46:46.472Z,61.65
2019-01-18T15:49:13.578Z,62.05
2019-01-18T15:51:40.962Z,62.24
2019-01-18T15:54:08.098Z,62.36
2019-01-18T15:56:35.240Z,62.52
2019-01-18T15:59:02.375Z,62.97
2019-01-18T16:01:29.452Z,62.84
2019-01-18T16:03:56.568Z,63.13
2019-01-18T16:06:23.692Z,63.13
2019-01-18T16:08:50.856Z,63.40
2019-01-18T16:11:17.956Z,63.51
2019-01-18T16:13:45.106Z,64.14
2019-01-18T16:16:22.581Z,64.14
2019-01-18T16:18:50.119Z,64.51
2019-01-18T16:21:17.231Z,64.54
2019-01-18T16:23:45.357Z,64.54
2019-01-18T16:26:12.463Z,64.41
2019-01-18T16:28:39.552Z,64.60
2019-01-18T16:31:06.730Z,64.84
2019-01-18T16:33:33.819Z,65.15
2019-01-18T16:36:00.902Z,65.09
2019-01-18T16:38:28.114Z,65.07
2019-01-18T16:40:55.199Z,65.38
2019-01-18T16:43:31.095Z,65.56
2019-01-18T16:45:58.215Z,65.45
2019-01-18T16:48:25.377Z,65.33
2019-01-18T16:50:52.485Z,68.65
2019-01-18T16:53:19.571Z,68.07
2019-01-18T16:55:46.643Z,66.93
2019-01-18T16:58:13.737Z,66.36
2019-01-18T17:00:41.921Z,65.45
2019-01-18T17:03:09.028Z,67.05
2019-01-18T17:05:36.197Z,66.33
2019-01-18T17:08:03.651Z,64.66
2019-01-18T17:10:30.747Z,61.51
2019-01-18T17:12:57.857Z,59.18
2019-01-18T17:15:24.976Z,59.00
2019-01-18T17:17:52.075Z,59.67
2019-01-18T17:20:24.262Z,60.10
2019-01-18T17:22:51.393Z,60.78
2019-01-18T17:25:18.536Z,61.68
2019-01-18T17:27:45.688Z,62.74
2019-01-18T17:30:15.087Z,63.35
2019-01-18T17:32:42.234Z,63.98
2019-01-18T17:35:15.239Z,64.33
2019-01-18T17:38:09.241Z,64.45
2019-01-18T17:40:41.940Z,64.45
2019-01-18T17:44:17.971Z,64.56
2019-01-18T17:47:14.471Z,64.81
2019-01-18T17:50:38.313Z,65.25
2019-01-18T17:53:34.827Z,65.96
2019-01-18T17:56:50.952Z,66.14
2019-01-18T17:59:43.547Z,65.93
2019-01-18T18:02:40.251Z,66.56
2019-01-18T18:05:37.437Z,67.13
2019-01-18T18:08:42.199Z,66.62
2019-01-18T18:11:22.931Z,66.09
2019-01-18T18:14:32.017Z,65.74
2019-01-18T18:17:31.899Z,66.04
2019-01-18T18:20:55.792Z,66.20
2019-01-18T18:23:59.493Z,66.17
2019-01-18T18:27:03.429Z,66.30
2019-01-18T18:30:15.038Z,65.98
2019-01-18T18:33:32.885Z,66.08
2019-01-18T18:36:46.320Z,66.52
2019-01-18T18:39:39.228Z,67.27
2019-01-18T18:42:47.601Z,67.64
2019-01-18T18:45:54.672Z,67.58
2019-01-18T18:48:55.858Z,67.95
2019-01-18T18:52:12.713Z,67.48
2019-01-18T18:55:24.226Z,67.31
2019-01-18T18:58:38.985Z,67.51
2019-01-18T19:01:45.178Z,67.54
2019-01-18T19:05:06.497Z,67.41
2019-01-18T19:07:55.710Z,67.28
2019-01-18T19:10:52.920Z,67.29
2019-01-18T19:14:00.143Z,67.30
2019-01-18T19:17:02.810Z,67.28
2019-01-18T19:20:16.468Z,67.39
2019-01-18T19:23:21.158Z,67.92
2019-01-18T19:26:26.435Z,68.36
2019-01-18T19:29:11.063Z,68.36
2019-01-18T19:31:59.843Z,68.23
2019-01-18T19:35:16.245Z,67.93
2019-01-18T19:38:21.055Z,67.53
2019-01-18T19:41:23.428Z,68.08
2019-01-18T19:44:37.250Z,68.65
2019-01-18T19:47:31.552Z,69.11
2019-01-18T19:50:44.104Z,69.25
2019-01-18T19:54:11.186Z,69.16
2019-01-18T19:57:02.773Z,68.67
2019-01-18T19:59:58.035Z,68.72
2019-01-18T20:02:59.596Z,68.94
2019-01-18T20:06:00.109Z,69.10
2019-01-18T20:08:55.414Z,69.05
2019-01-18T20:11:54.507Z,69.02
2019-01-18T20:15:12.933Z,69.12
2019-01-18T20:18:26.758Z,69.46
2019-01-18T20:21:22.538Z,69.40
2019-01-18T20:24:26.142Z,69.42
2019-01-18T20:27:38.981Z,69.71
2019-01-18T20:30:30.267Z,70.20
2019-01-18T20:33:54.576Z,70.13
2019-01-18T20:36:53.475Z,70.10
2019-01-18T20:39:58.831Z,70.09
2019-01-18T20:43:09.873Z,69.97
2019-01-18T20:45:59.537Z,69.84
2019-01-18T20:48:46.863Z,69.75
2019-01-18T20:51:56.807Z,69.47
2019-01-18T20:54:41.700Z,69.54
2019-01-18T20:57:46.898Z,69.48
2019-01-18T21:00:22.498Z,69.37
2019-01-18T21:03:08.569Z,69.29
2019-01-18T21:06:00.552Z,69.17
2019-01-18T21:09:11.817Z,69.23
2019-01-18T21:12:10.732Z,69.36
2019-01-18T21:14:59.516Z,69.90
2019-01-18T21:17:58.964Z,70.21
2019-01-18T21:21:06.357Z,70.06
2019-01-18T21:24:22.956Z,70.28
2019-01-18T21:27:27.536Z,70.42
2019-01-18T21:30:51.979Z,70.31
2019-01-18T21:34:13.241Z,70.16
2019-01-18T21:37:35.030Z,70.20
2019-01-18T21:40:34.114Z,70.17
2019-01-18T21:43:23.257Z,70.04
2019-01-18T21:46:20.989Z,69.91
2019-01-18T21:49:08.051Z,69.98
2019-01-18T21:51:51.805Z,70.22
2019-01-18T21:54:38.462Z,70.52
2019-01-18T21:57:50.218Z,70.69
2019-01-18T22:00:43.072Z,70.69
2019-01-18T22:03:58.504Z,70.79
2019-01-18T22:06:41.036Z,70.86
2019-01-18T22:09:28.496Z,70.97
2019-01-18T22:12:42.207Z,71.02
2019-01-18T22:15:49.894Z,71.04
2019-01-18T22:18:57.784Z,71.08
2019-01-18T22:22:12.868Z,70.97
2019-01-18T22:25:33.696Z,70.87
2019-01-18T22:28:32.843Z,70.66
2019-01-18T22:31:39.552Z,70.91
2019-01-18T22:34:19.491Z,71.01
2019-01-18T22:37:17.809Z,70.86
2019-01-18T22:40:25.369Z,70.68
2019-01-18T22:43:32.353Z,70.56
2019-01-18T22:46:52.680Z,70.54
2019-01-18T22:49:34.848Z,70.99
2019-01-18T22:52:26.861Z,71.01
2019-01-18T22:55:29.485Z,70.79
2019-01-18T22:58:40.698Z,70.78
2019-01-18T23:01:42.774Z,70.87
2019-01-18T23:04:47.624Z,71.08
2019-01-18T23:08:09.000Z,71.06
2019-01-18T23:11:20.881Z,71.13
2019-01-18T23:14:26.934Z,71.16
2019-01-18T23:17:44.530Z,71.02
2019-01-18T23:21:11.166Z,70.72
2019-01-18T23:23:59.063Z,70.60
2019-01-18T23:27:18.614Z,70.61
2019-01-18T23:30:36.378Z,70.49
2019-01-18T23:33:32.263Z,70.50
2019-01-18T23:36:22.163Z,70.43
2019-01-18T23:39:14.848Z,70.39
2019-01-18T23:42:28.492Z,70.31
2019-01-18T23:45:42.357Z,70.23
2019-01-18T23:48:50.587Z,70.35
2019-01-18T23:52:23.578Z,70.46
2019-01-18T23:55:36.361Z,70.55
2019-01-18T23:58:42.886Z,70.58
